Time;durP1;ratioP1;P1;durP2;ratioP2;P2;SDS_P1;SDS_P2;PMS_P1;PMS_P2;Temp;Humidity;BMP_temperature;BMP_pressure;BME280_temperature;BME280_humidity;BME280_pressure;Samples;Min_cycle;Max_cycle;Signal;HPM_P1;HPM_P2
2022/04/17 00:02:06;;;;;;;;;1.00;0.00;17.80;99.90;;;;;;5075157;28;9078;-51
2022/04/17 00:04:37;;;;;;;;;1.00;1.00;17.80;99.90;;;;;;5073227;28;9156;-40
2022/04/17 00:07:08;;;;;;;;;1.67;1.00;17.70;99.90;;;;;;5079149;28;9428;-41
2022/04/17 00:09:39;;;;;;;;;1.00;1.00;17.60;99.90;;;;;;5080146;28;9460;-48
2022/04/17 00:12:11;;;;;;;;;0.67;0.67;17.60;99.90;;;;;;5069150;28;9205;-49
2022/04/17 00:14:43;;;;;;;;;0.33;0.33;17.60;99.90;;;;;;5076985;28;9366;-48
2022/04/17 00:17:14;;;;;;;;;0.75;0.75;17.60;99.90;;;;;;5082614;28;9491;-47
2022/04/17 00:19:45;;;;;;;;;0.75;0.00;17.50;99.90;;;;;;5076239;28;9681;-40
2022/04/17 00:22:16;;;;;;;;;6.25;6.25;17.40;99.90;;;;;;5078200;28;10884;-38
2022/04/17 00:24:46;;;;;;;;;8.00;8.00;17.30;99.90;;;;;;5075172;28;11237;-48
2022/04/17 00:27:16;;;;;;;;;0.00;0.00;17.30;99.90;;;;;;5081954;28;10389;-49
2022/04/17 00:29:49;;;;;;;;;0.50;0.50;17.30;99.90;;;;;;5077810;28;10149;-48
2022/04/17 00:32:20;;;;;;;;;1.00;1.00;17.20;99.90;;;;;;5081251;28;9724;-47
2022/04/17 00:34:52;;;;;;;;;0.00;0.00;17.10;99.90;;;;;;5079988;28;9590;-47
2022/04/17 00:37:22;;;;;;;;;0.00;0.00;17.00;99.90;;;;;;5079308;28;10035;-47
2022/04/17 00:39:54;;;;;;;;;2.25;0.25;17.00;99.90;;;;;;5074416;28;10298;-48
2022/04/17 00:42:25;;;;;;;;;1.25;1.00;17.10;99.90;;;;;;5078725;28;11259;-47
2022/04/17 00:44:55;;;;;;;;;8.75;8.75;16.90;99.90;;;;;;5079344;28;11589;-45
2022/04/17 00:47:25;;;;;;;;;60.67;50.00;16.90;99.90;;;;;;5084887;28;11473;-50
2022/04/17 00:50:02;;;;;;;;;71.00;62.67;16.70;99.90;;;;;;5079794;28;8845;-61
2022/04/17 00:52:34;;;;;;;;;70.00;61.00;16.70;99.90;;;;;;4994181;28;8875;-52
2022/04/17 00:55:05;;;;;;;;;22.00;20.00;16.60;99.90;;;;;;4999860;28;9068;-52
2022/04/17 00:57:35;;;;;;;;;8.75;4.50;16.50;99.90;;;;;;5003087;28;11655;-54
2022/04/17 01:00:08;;;;;;;;;3.50;2.00;16.50;99.90;;;;;;5000162;28;12329;-50
2022/04/17 01:02:38;;;;;;;;;2.50;1.00;16.60;99.90;;;;;;5001449;28;11235;-48
2022/04/17 01:05:09;;;;;;;;;1.00;1.00;16.50;99.90;;;;;;5000656;28;10380;-52
2022/04/17 01:07:40;;;;;;;;;0.75;0.75;16.40;99.90;;;;;;5000978;28;10207;-53
2022/04/17 01:10:11;;;;;;;;;1.50;1.00;16.40;99.90;;;;;;5002213;28;10261;-52
2022/04/17 01:12:41;;;;;;;;;1.00;1.00;16.30;99.90;;;;;;5001003;28;10179;-51
2022/04/17 01:15:12;;;;;;;;;1.75;1.75;16.20;99.90;;;;;;4998398;28;10509;-53
2022/04/17 01:17:43;;;;;;;;;1.00;0.25;16.20;99.90;;;;;;4999269;28;11199;-54
2022/04/17 01:20:16;;;;;;;;;1.00;1.00;16.20;99.90;;;;;;4998525;28;10384;-53
2022/04/17 01:22:50;;;;;;;;;1.00;1.00;16.10;99.90;;;;;;4996762;28;10443;-54
2022/04/17 01:28:10;;;;;;;;;1.25;1.25;16.10;99.90;;;;;;4996688;28;11282;-52
2022/04/17 01:30:40;;;;;;;;;1.25;1.25;15.90;99.90;;;;;;4997068;28;10572;-53
2022/04/17 01:33:10;;;;;;;;;0.00;0.00;16.00;99.90;;;;;;4995912;28;10608;-54
2022/04/17 01:35:41;;;;;;;;;1.00;1.00;16.10;99.90;;;;;;5003927;28;10595;-52
2022/04/17 01:38:11;;;;;;;;;0.00;0.00;16.10;99.90;;;;;;5028994;28;10555;-53
2022/04/17 01:40:41;;;;;;;;;0.00;0.00;16.10;99.90;;;;;;4998790;28;11194;-54
2022/04/17 01:43:12;;;;;;;;;3.00;1.00;15.90;99.90;;;;;;5002189;28;11645;-54
2022/04/17 01:45:42;;;;;;;;;2.00;2.00;15.90;99.90;;;;;;5001144;28;10684;-53
2022/04/17 01:48:14;;;;;;;;;0.75;0.75;15.80;99.90;;;;;;4995878;28;10598;-54
2022/04/17 01:50:47;;;;;;;;;0.25;0.25;15.80;99.90;;;;;;5010631;28;10421;-52
2022/04/17 01:53:17;;;;;;;;;0.75;0.75;15.80;99.90;;;;;;4995017;28;10526;-55
2022/04/17 01:55:47;;;;;;;;;0.75;0.75;15.70;99.90;;;;;;4995537;28;10682;-53
2022/04/17 01:58:18;;;;;;;;;2.75;1.00;15.70;99.90;;;;;;4993294;28;11303;-54
2022/04/17 02:00:48;;;;;;;;;1.00;1.00;15.70;99.90;;;;;;4998561;28;10652;-55
2022/04/17 02:03:19;;;;;;;;;1.00;1.00;15.70;99.90;;;;;;4994808;28;10686;-54
2022/04/17 02:05:49;;;;;;;;;0.25;0.25;15.70;99.90;;;;;;5001697;28;10619;-56
2022/04/17 02:08:20;;;;;;;;;0.50;0.50;15.60;99.90;;;;;;5001367;28;10625;-55
2022/04/17 02:10:51;;;;;;;;;2.50;1.00;15.60;99.90;;;;;;4996161;28;10626;-55
2022/04/17 02:13:21;;;;;;;;;3.00;1.25;15.50;99.90;;;;;;4996418;28;10675;-55
2022/04/17 02:15:53;;;;;;;;;1.00;1.00;15.50;99.90;;;;;;4989884;28;10654;-55
2022/04/17 02:18:26;;;;;;;;;1.00;1.00;15.50;99.90;;;;;;4994626;28;10602;-56
2022/04/17 02:20:59;;;;;;;;;0.00;0.00;15.40;99.90;;;;;;4997211;28;10614;-53
2022/04/17 02:23:30;;;;;;;;;2.00;1.00;15.30;99.90;;;;;;4997394;28;10684;-54
2022/04/17 02:26:01;;;;;;;;;0.00;0.00;15.30;99.90;;;;;;4998947;28;10759;-54
2022/04/17 02:28:35;;;;;;;;;0.00;0.00;15.20;99.90;;;;;;5000286;28;10700;-53
2022/04/17 02:31:07;;;;;;;;;1.25;1.00;15.30;99.90;;;;;;4990319;28;10988;-55
2022/04/17 02:33:39;;;;;;;;;1.00;1.00;15.30;99.90;;;;;;4995797;28;10714;-54
2022/04/17 02:36:10;;;;;;;;;1.00;1.00;15.30;99.90;;;;;;4997494;28;10735;-56
2022/04/17 02:38:43;;;;;;;;;0.00;0.00;15.20;99.90;;;;;;5000129;28;10746;-52
2022/04/17 02:41:13;;;;;;;;;0.25;0.25;15.10;99.90;;;;;;5001577;28;10893;-55
2022/04/17 02:43:43;;;;;;;;;0.00;0.00;15.10;99.90;;;;;;5030635;28;10855;-51
2022/04/17 02:47:42;;;;;;;;;0.00;0.00;15.00;99.90;;;;;;4993901;28;11527;-54
2022/04/17 02:49:04;;;;;;;;;1.00;1.00;15.00;99.90;;;;;;4991764;28;10832;-50
2022/04/17 02:51:34;;;;;;;;;0.75;0.75;15.00;99.90;;;;;;4991747;28;10904;-52
2022/04/17 02:54:04;;;;;;;;;1.00;1.00;14.90;99.90;;;;;;4994540;28;11027;-54
2022/04/17 02:56:35;;;;;;;;;1.00;1.00;14.90;99.90;;;;;;4991412;28;10868;-51
2022/04/17 02:59:04;;;;;;;;;1.00;1.00;14.80;99.90;;;;;;4996405;28;11053;-50
2022/04/17 03:07:13;;;;;;;;;0.25;0.25;14.60;99.90;;;;;;5002106;28;10966;-51
2022/04/17 03:09:45;;;;;;;;;0.00;0.00;14.70;99.90;;;;;;4998328;28;10817;-52
2022/04/17 03:12:16;;;;;;;;;0.00;0.00;14.70;99.90;;;;;;5001779;28;10969;-49
2022/04/17 03:14:47;;;;;;;;;2.00;1.00;14.70;99.90;;;;;;4998777;28;11065;-53
2022/04/17 03:17:16;;;;;;;;;0.75;0.75;14.70;99.90;;;;;;5001131;28;10924;-53
2022/04/17 03:19:47;;;;;;;;;1.75;1.75;14.70;99.90;;;;;;5026920;28;11681;-54
2022/04/17 03:22:20;;;;;;;;;3.00;1.00;14.70;99.90;;;;;;5001269;28;10976;-53
2022/04/17 03:24:51;;;;;;;;;0.75;0.75;14.70;99.90;;;;;;4997060;28;11097;-55
2022/04/17 03:27:20;;;;;;;;;1.00;1.00;14.70;99.90;;;;;;4995128;28;11139;-54
2022/04/17 03:29:50;;;;;;;;;1.25;0.00;14.60;99.90;;;;;;5025279;28;11133;-51
2022/04/17 03:32:20;;;;;;;;;2.00;0.00;14.60;99.90;;;;;;5000463;28;10974;-52
2022/04/17 03:34:51;;;;;;;;;0.00;0.00;14.60;99.90;;;;;;4986422;28;10908;-53
2022/04/17 03:37:21;;;;;;;;;0.75;0.75;14.50;99.90;;;;;;5001504;28;11072;-53
2022/04/17 03:39:53;;;;;;;;;1.00;1.00;14.50;99.90;;;;;;5001361;28;11822;-52
2022/04/17 03:42:24;;;;;;;;;1.00;1.00;14.40;99.90;;;;;;4998671;28;11764;-53
2022/04/17 03:44:54;;;;;;;;;1.25;1.00;14.40;99.90;;;;;;4990812;28;11073;-53
2022/04/17 03:47:24;;;;;;;;;0.25;0.25;14.40;99.90;;;;;;4997388;28;11219;-54
2022/04/17 03:49:55;;;;;;;;;2.25;1.00;14.40;99.90;;;;;;4995062;28;11106;-54
2022/04/17 03:52:26;;;;;;;;;1.00;1.00;14.30;99.90;;;;;;4982800;28;11161;-52
2022/04/17 03:54:58;;;;;;;;;2.25;2.25;14.30;99.90;;;;;;4975246;28;11245;-53
2022/04/17 03:57:28;;;;;;;;;0.00;0.00;14.20;99.90;;;;;;4977543;28;11528;-53
2022/04/17 04:00:00;;;;;;;;;0.50;0.50;14.20;99.90;;;;;;4979394;28;11129;-56
2022/04/17 04:02:43;;;;;;;;;0.25;0.25;14.20;99.90;;;;;;4986875;28;11422;-54
2022/04/17 04:05:13;;;;;;;;;0.00;0.00;14.20;99.90;;;;;;4978860;28;11179;-51
2022/04/17 04:07:43;;;;;;;;;0.00;0.00;14.20;99.90;;;;;;4976908;28;11238;-51
2022/04/17 04:10:13;;;;;;;;;0.50;0.50;14.10;99.90;;;;;;5006035;28;11136;-55
2022/04/17 04:12:45;;;;;;;;;0.25;0.25;14.10;99.90;;;;;;4971799;28;11141;-54
2022/04/17 04:15:16;;;;;;;;;0.00;0.00;14.00;99.90;;;;;;4977791;28;11855;-52
2022/04/17 04:17:45;;;;;;;;;0.50;0.25;14.00;99.90;;;;;;4976255;28;11457;-55
2022/04/17 04:20:16;;;;;;;;;0.75;0.75;14.00;99.90;;;;;;4977002;28;11483;-51
2022/04/17 04:22:48;;;;;;;;;1.00;1.00;14.00;99.90;;;;;;4979934;28;11487;-51
2022/04/17 04:25:18;;;;;;;;;0.00;0.00;14.00;99.90;;;;;;4971126;28;11234;-50
2022/04/17 04:30:37;;;;;;;;;1.00;1.00;13.90;99.90;;;;;;4965725;28;10903;-54
2022/04/17 04:33:09;;;;;;;;;1.25;1.25;13.90;99.90;;;;;;4970895;28;11854;-53
2022/04/17 04:35:40;;;;;;;;;1.00;1.00;13.90;99.90;;;;;;4972992;28;11481;-54
2022/04/17 04:38:11;;;;;;;;;0.50;0.50;13.90;99.90;;;;;;4972549;28;11982;-53
2022/04/17 04:40:41;;;;;;;;;0.00;0.00;13.90;99.90;;;;;;4978167;28;11476;-54
2022/04/17 04:43:12;;;;;;;;;3.00;1.00;13.90;99.90;;;;;;4976504;28;11250;-53
2022/04/17 04:51:22;;;;;;;;;1.00;1.00;13.80;99.90;;;;;;4980689;28;11522;-55
2022/04/17 04:53:56;;;;;;;;;1.50;1.50;13.80;99.90;;;;;;4992684;28;11450;-51
2022/04/17 04:56:27;;;;;;;;;0.75;0.75;13.70;99.90;;;;;;4996568;28;11447;-52
2022/04/17 04:58:58;;;;;;;;;1.00;1.00;13.70;99.90;;;;;;4990356;28;11466;-54
2022/04/17 05:01:29;;;;;;;;;0.50;0.50;13.70;99.90;;;;;;5023027;28;11475;-55
2022/04/17 05:03:59;;;;;;;;;0.25;0.25;13.70;99.90;;;;;;4992708;28;11967;-52
2022/04/17 05:06:29;;;;;;;;;2.50;2.50;13.70;99.90;;;;;;4994567;28;11487;-55
2022/04/17 05:09:00;;;;;;;;;1.00;1.00;13.60;99.90;;;;;;4993193;28;11578;-53
2022/04/17 05:11:31;;;;;;;;;1.75;1.00;13.60;99.90;;;;;;4992913;28;11463;-53
2022/04/17 05:14:04;;;;;;;;;0.00;0.00;13.60;99.90;;;;;;4986727;28;11460;-53
2022/04/17 05:16:36;;;;;;;;;1.00;1.00;13.60;99.90;;;;;;4999961;28;11886;-55
2022/04/17 05:19:24;;;;;;;;;1.00;1.00;13.50;99.90;;;;;;4991642;28;11689;-54
2022/04/17 05:21:58;;;;;;;;;1.00;1.00;13.60;99.90;;;;;;5025198;28;11616;-56
2022/04/17 05:24:29;;;;;;;;;1.50;1.50;13.50;99.90;;;;;;5022253;28;11469;-52
2022/04/17 05:27:02;;;;;;;;;1.75;1.75;13.50;99.90;;;;;;4997097;28;11479;-56
2022/04/17 05:29:32;;;;;;;;;1.00;1.00;13.50;99.90;;;;;;4988133;28;11652;-51
2022/04/17 05:32:05;;;;;;;;;1.00;1.00;13.50;99.90;;;;;;4994165;28;11475;-52
2022/04/17 05:34:35;;;;;;;;;1.00;1.00;13.50;99.90;;;;;;4997248;28;11510;-54
2022/04/17 05:37:07;;;;;;;;;1.00;1.00;13.40;99.90;;;;;;4997387;28;11464;-57
2022/04/17 05:39:37;;;;;;;;;1.00;1.00;13.50;99.90;;;;;;4999232;28;11463;-52
2022/04/17 05:42:11;;;;;;;;;1.00;1.00;13.40;99.90;;;;;;4998438;28;11515;-53
2022/04/17 05:44:47;;;;;;;;;2.00;2.00;13.40;99.90;;;;;;5031560;28;11520;-51
2022/04/17 05:47:17;;;;;;;;;0.75;0.75;13.40;99.90;;;;;;4998424;28;11474;-53
2022/04/17 05:49:48;;;;;;;;;2.00;1.50;13.40;99.90;;;;;;4999419;28;11473;-52
2022/04/17 05:52:19;;;;;;;;;1.00;1.00;13.30;99.90;;;;;;5000986;28;11497;-53
2022/04/17 05:54:49;;;;;;;;;1.50;1.00;13.30;99.90;;;;;;4996785;28;11488;-53
2022/04/17 05:57:21;;;;;;;;;2.00;0.00;13.30;99.90;;;;;;4997061;28;11460;-55
2022/04/17 05:59:52;;;;;;;;;2.50;1.25;13.30;99.90;;;;;;4999360;28;11497;-53
2022/04/17 06:02:22;;;;;;;;;1.00;1.00;13.30;99.90;;;;;;5002681;28;11517;-54
2022/04/17 06:04:53;;;;;;;;;1.00;1.00;13.30;99.90;;;;;;4999903;28;11516;-52
2022/04/17 06:07:27;;;;;;;;;1.75;1.75;13.20;99.90;;;;;;4997783;28;11530;-53
2022/04/17 06:10:08;;;;;;;;;0.50;0.50;13.20;99.90;;;;;;4996643;28;11461;-52
2022/04/17 06:12:40;;;;;;;;;2.00;2.00;13.10;99.90;;;;;;4998425;28;11461;-52
2022/04/17 06:15:11;;;;;;;;;3.25;1.75;13.10;99.90;;;;;;5026830;28;11806;-54
2022/04/17 06:17:44;;;;;;;;;1.00;1.00;13.10;99.90;;;;;;4995681;28;11505;-53
2022/04/17 06:20:16;;;;;;;;;0.00;0.00;13.10;99.90;;;;;;5000220;28;12207;-54
2022/04/17 06:22:46;;;;;;;;;1.00;1.00;13.10;99.90;;;;;;4999660;28;11467;-53
2022/04/17 06:25:17;;;;;;;;;1.00;1.00;13.10;99.90;;;;;;5027756;28;11508;-54
2022/04/17 06:27:48;;;;;;;;;1.00;1.00;13.10;99.90;;;;;;4996624;28;11501;-55
2022/04/17 06:30:20;;;;;;;;;0.25;0.25;13.10;99.90;;;;;;4998300;28;11455;-51
2022/04/17 06:32:51;;;;;;;;;1.00;1.00;13.10;99.90;;;;;;4999644;28;11493;-54
2022/04/17 06:35:22;;;;;;;;;0.00;0.00;13.10;99.90;;;;;;5001860;28;11462;-54
2022/04/17 06:38:00;;;;;;;;;1.50;1.50;13.00;99.90;;;;;;4994533;28;11465;-52
2022/04/17 06:40:34;;;;;;;;;0.00;0.00;13.00;99.90;;;;;;4996170;28;12192;-55
2022/04/17 06:43:08;;;;;;;;;1.00;1.00;13.00;99.90;;;;;;4996334;28;11542;-53
2022/04/17 06:45:40;;;;;;;;;2.00;1.00;13.00;99.90;;;;;;5000997;28;11504;-53
2022/04/17 06:48:19;;;;;;;;;0.00;0.00;13.00;99.90;;;;;;4992115;28;11462;-54
2022/04/17 06:50:52;;;;;;;;;1.00;1.00;13.00;99.90;;;;;;5000202;28;12211;-54
2022/04/17 06:53:23;;;;;;;;;1.00;1.00;12.90;99.90;;;;;;4997692;28;11485;-53
2022/04/17 06:55:54;;;;;;;;;0.00;0.00;12.90;99.90;;;;;;5007793;28;11534;-54
2022/04/17 06:58:25;;;;;;;;;1.00;1.00;12.80;99.90;;;;;;4997785;28;11524;-52
2022/04/17 07:00:58;;;;;;;;;1.00;1.00;12.80;99.90;;;;;;4993679;28;11581;-52
2022/04/17 07:03:27;;;;;;;;;2.25;1.00;12.80;99.90;;;;;;5001297;28;12280;-55
2022/04/17 07:05:57;;;;;;;;;2.25;2.25;12.80;99.90;;;;;;4998652;28;11582;-54
2022/04/17 07:08:29;;;;;;;;;1.00;1.00;12.80;99.90;;;;;;4992591;28;11540;-51
2022/04/17 07:11:00;;;;;;;;;2.00;2.00;12.70;99.90;;;;;;4988813;28;11565;-53
2022/04/17 07:13:32;;;;;;;;;1.25;1.25;12.70;99.90;;;;;;4999474;28;11526;-53
2022/04/17 07:16:02;;;;;;;;;2.25;1.00;12.70;99.90;;;;;;4991749;28;12248;-53
2022/04/17 07:18:32;;;;;;;;;3.75;3.75;12.60;99.90;;;;;;4998288;28;11515;-50
2022/04/17 07:21:03;;;;;;;;;4.00;4.00;12.60;99.90;;;;;;5027041;28;11546;-53
2022/04/17 07:23:33;;;;;;;;;3.25;3.25;12.60;99.90;;;;;;4997468;28;11560;-52
2022/04/17 07:26:03;;;;;;;;;4.75;3.75;12.60;99.90;;;;;;4994214;28;12348;-49
2022/04/17 07:28:33;;;;;;;;;4.00;4.00;12.60;99.90;;;;;;4999305;28;11544;-52
2022/04/17 07:31:05;;;;;;;;;6.00;6.00;12.60;99.90;;;;;;4995674;28;11713;-53
2022/04/17 07:33:35;;;;;;;;;4.75;4.75;12.50;99.90;;;;;;4996165;28;11692;-50
2022/04/17 07:36:05;;;;;;;;;5.00;5.00;12.50;99.90;;;;;;4998032;28;12846;-52
2022/04/17 07:38:36;;;;;;;;;4.75;4.75;12.40;99.90;;;;;;4998721;28;11548;-54
2022/04/17 07:41:06;;;;;;;;;5.25;5.25;12.40;99.90;;;;;;4992290;28;12343;-53
2022/04/17 07:43:37;;;;;;;;;6.25;6.25;12.40;99.90;;;;;;4996068;28;11539;-54
2022/04/17 07:46:07;;;;;;;;;7.00;7.00;12.40;99.90;;;;;;4993296;28;11554;-54
2022/04/17 07:48:37;;;;;;;;;5.75;5.75;12.30;99.90;;;;;;4990063;28;11583;-55
2022/04/17 07:51:08;;;;;;;;;6.00;6.00;12.30;99.90;;;;;;5015697;28;11582;-52
2022/04/17 07:53:38;;;;;;;;;12.75;12.75;12.30;99.90;;;;;;4994459;28;11574;-55
2022/04/17 07:56:10;;;;;;;;;13.25;13.25;12.30;99.90;;;;;;4999298;28;11557;-54
2022/04/17 07:58:41;;;;;;;;;11.50;11.50;12.30;99.90;;;;;;4993115;28;11528;-53
2022/04/17 08:01:12;;;;;;;;;8.75;8.75;12.20;99.90;;;;;;4996969;28;11629;-52
2022/04/17 08:06:17;;;;;;;;;13.00;11.25;12.20;99.90;;;;;;4997207;28;11597;-55
2022/04/17 08:08:50;;;;;;;;;7.00;7.00;12.20;99.90;;;;;;4992393;28;11675;-55
2022/04/17 08:11:20;;;;;;;;;8.25;8.25;12.20;99.90;;;;;;4996969;28;11519;-53
2022/04/17 08:13:51;;;;;;;;;7.50;7.50;12.20;99.90;;;;;;4994909;28;11569;-55
2022/04/17 08:16:23;;;;;;;;;6.25;6.25;12.20;99.90;;;;;;4993830;28;11537;-53
2022/04/17 08:18:55;;;;;;;;;5.00;5.00;12.20;99.90;;;;;;4990163;28;11623;-54
2022/04/17 08:21:26;;;;;;;;;7.75;7.75;12.20;99.90;;;;;;4998945;28;11595;-54
2022/04/17 08:23:56;;;;;;;;;9.75;9.75;12.20;99.90;;;;;;4996164;28;11572;-53
2022/04/17 08:26:27;;;;;;;;;8.25;8.25;12.20;99.90;;;;;;4990393;28;11553;-55
2022/04/17 08:28:57;;;;;;;;;13.25;11.50;12.10;99.90;;;;;;4995558;28;11518;-53
2022/04/17 08:31:28;;;;;;;;;12.25;12.25;12.20;99.90;;;;;;4993701;28;11552;-53
2022/04/17 08:34:00;;;;;;;;;6.00;6.00;12.20;99.90;;;;;;4996980;28;11603;-53
2022/04/17 08:36:31;;;;;;;;;2.50;2.50;12.10;99.90;;;;;;5001509;28;11722;-54
2022/04/17 08:39:01;;;;;;;;;1.50;1.50;12.10;99.90;;;;;;4998777;28;11553;-52
2022/04/17 08:41:33;;;;;;;;;0.00;0.00;12.10;99.90;;;;;;4998617;28;11535;-54
2022/04/17 08:44:04;;;;;;;;;1.00;0.00;12.10;99.90;;;;;;4997149;28;11516;-54
2022/04/17 08:46:34;;;;;;;;;1.25;0.75;12.10;99.90;;;;;;4993854;28;11564;-53
2022/04/17 08:49:06;;;;;;;;;1.00;1.00;12.10;99.90;;;;;;4990473;28;11507;-54
2022/04/17 08:51:38;;;;;;;;;1.00;0.00;12.00;99.90;;;;;;4998288;28;11551;-53
2022/04/17 08:54:10;;;;;;;;;0.00;0.00;12.00;99.90;;;;;;5010224;28;11510;-53
2022/04/17 08:56:40;;;;;;;;;1.00;1.00;12.00;99.90;;;;;;5031238;28;11530;-52
2022/04/17 08:59:10;;;;;;;;;0.25;0.25;12.00;99.90;;;;;;5003829;28;11568;-53
2022/04/17 09:01:40;;;;;;;;;0.00;0.00;12.00;99.90;;;;;;4998954;28;11580;-53
2022/04/17 09:04:12;;;;;;;;;2.50;1.00;11.90;99.90;;;;;;4998345;28;11555;-52
2022/04/17 09:06:44;;;;;;;;;2.75;2.75;12.00;99.90;;;;;;4999571;28;11589;-53
2022/04/17 09:09:14;;;;;;;;;3.75;3.75;11.90;99.90;;;;;;4993811;28;11534;-54
2022/04/17 09:11:44;;;;;;;;;10.00;7.75;11.90;99.90;;;;;;4997453;28;11544;-53
2022/04/17 09:14:21;;;;;;;;;14.25;14.25;11.80;99.90;;;;;;4993941;28;11648;-53
2022/04/17 09:16:51;;;;;;;;;25.67;25.67;11.80;99.90;;;;;;4996589;28;11549;-54
2022/04/17 09:19:22;;;;;;;;;28.50;28.50;11.80;99.90;;;;;;4996572;28;11541;-54
2022/04/17 09:21:56;;;;;;;;;35.33;34.00;11.80;99.90;;;;;;5001370;28;11645;-50
2022/04/17 09:24:26;;;;;;;;;37.33;35.00;11.70;99.90;;;;;;4997992;28;8871;-52
2022/04/17 09:26:58;;;;;;;;;37.67;35.67;11.70;99.90;;;;;;5001415;28;8859;-54
2022/04/17 09:29:32;;;;;;;;;28.33;28.00;11.60;99.90;;;;;;4994558;28;9663;-53
2022/04/17 09:32:09;;;;;;;;;16.00;16.00;11.60;99.90;;;;;;4996468;28;8878;-51
2022/04/17 09:34:52;;;;;;;;;5.50;5.50;11.60;99.90;;;;;;4995440;28;11602;-52
2022/04/17 09:37:24;;;;;;;;;1.50;1.00;11.60;99.90;;;;;;5003924;28;11604;-51
2022/04/17 09:40:07;;;;;;;;;3.00;0.50;11.50;99.90;;;;;;5001596;28;11602;-54
2022/04/17 09:42:36;;;;;;;;;0.50;0.50;11.50;99.90;;;;;;5040669;28;11561;-54
2022/04/17 09:45:08;;;;;;;;;1.00;1.00;11.50;99.90;;;;;;4995761;28;11524;-53
2022/04/17 09:47:38;;;;;;;;;0.50;0.50;11.40;99.90;;;;;;5002707;28;11547;-55
2022/04/17 09:50:09;;;;;;;;;2.00;2.00;11.40;99.90;;;;;;5000184;28;11557;-55
2022/04/17 09:52:48;;;;;;;;;2.00;2.00;11.40;99.90;;;;;;5000256;28;11532;-54
2022/04/17 09:55:27;;;;;;;;;0.00;0.00;11.40;99.90;;;;;;4992613;28;11531;-53
2022/04/17 09:57:59;;;;;;;;;0.75;0.75;11.40;99.90;;;;;;5001322;28;11538;-52
2022/04/17 10:00:41;;;;;;;;;1.00;1.00;11.30;99.90;;;;;;5003036;28;11631;-52
2022/04/17 10:03:12;;;;;;;;;1.75;1.75;11.30;99.90;;;;;;4991001;28;13083;-52
2022/04/17 10:05:44;;;;;;;;;1.00;1.00;11.30;99.90;;;;;;4991783;28;11524;-54
2022/04/17 10:08:14;;;;;;;;;0.00;0.00;11.30;99.90;;;;;;4998781;28;11527;-53
2022/04/17 10:10:44;;;;;;;;;0.75;0.75;11.30;99.90;;;;;;4993716;28;11512;-53
2022/04/17 10:13:15;;;;;;;;;0.25;0.25;11.30;99.90;;;;;;4999516;28;11644;-53
2022/04/17 10:15:45;;;;;;;;;0.50;0.50;11.30;99.90;;;;;;4998343;28;11551;-60
2022/04/17 10:18:17;;;;;;;;;1.25;1.25;11.30;99.90;;;;;;5003043;28;11506;-49
2022/04/17 10:20:51;;;;;;;;;2.25;1.00;11.30;99.90;;;;;;4997986;28;11521;-52
2022/04/17 10:23:26;;;;;;;;;1.00;1.00;11.30;99.90;;;;;;5003125;28;11567;-53
2022/04/17 10:26:02;;;;;;;;;1.25;1.25;11.20;99.90;;;;;;4994954;28;11558;-52
2022/04/17 10:28:39;;;;;;;;;0.75;0.75;11.20;99.90;;;;;;5002203;28;12082;-54
2022/04/17 10:31:20;;;;;;;;;0.50;0.50;11.20;99.90;;;;;;4989714;28;11547;-55
2022/04/17 10:34:15;;;;;;;;;0.00;0.00;11.20;99.90;;;;;;4997438;28;12665;-54
2022/04/17 10:37:05;;;;;;;;;2.50;1.00;11.20;99.90;;;;;;5002481;28;11516;-53
2022/04/17 10:39:48;;;;;;;;;0.50;0.50;11.20;99.90;;;;;;4997203;28;12391;-52
2022/04/17 10:42:19;;;;;;;;;1.75;1.75;11.20;99.90;;;;;;4996311;28;11536;-54
2022/04/17 10:45:08;;;;;;;;;2.00;2.00;11.20;99.90;;;;;;5026825;28;11557;-55
2022/04/17 10:47:37;;;;;;;;;1.25;1.25;11.20;99.90;;;;;;4988944;28;11559;-54
2022/04/17 10:50:10;;;;;;;;;2.00;1.00;11.20;99.90;;;;;;4992783;28;11593;-54
2022/04/17 10:52:43;;;;;;;;;1.00;1.00;11.10;99.90;;;;;;5003581;28;12246;-53
2022/04/17 10:55:15;;;;;;;;;2.00;2.00;11.10;99.90;;;;;;4993523;28;11654;-52
2022/04/17 10:57:47;;;;;;;;;1.25;1.25;11.10;99.90;;;;;;5028316;28;11547;-55
2022/04/17 11:00:31;;;;;;;;;1.25;1.25;11.10;99.90;;;;;;4996774;28;11532;-52
2022/04/17 11:03:26;;;;;;;;;2.00;2.00;11.10;99.90;;;;;;5005984;28;11712;-54
2022/04/17 11:06:09;;;;;;;;;0.75;0.75;11.10;99.90;;;;;;5015254;28;11569;-51
2022/04/17 11:08:57;;;;;;;;;1.00;1.00;11.10;99.90;;;;;;5014877;28;11535;-55
2022/04/17 11:11:40;;;;;;;;;0.00;0.00;11.10;99.90;;;;;;5012179;28;11524;-53
2022/04/17 11:14:13;;;;;;;;;1.00;1.00;11.10;99.90;;;;;;5016830;28;11582;-52
2022/04/17 11:16:48;;;;;;;;;1.00;1.00;11.10;99.90;;;;;;5016631;28;11512;-53
2022/04/17 11:19:27;;;;;;;;;1.00;1.00;11.10;99.90;;;;;;5011690;28;11526;-55
2022/04/17 11:22:04;;;;;;;;;0.00;0.00;11.10;99.90;;;;;;5019281;28;11557;-52
2022/04/17 11:24:57;;;;;;;;;1.25;1.25;11.00;99.90;;;;;;5010472;28;11557;-53
2022/04/17 11:27:32;;;;;;;;;1.25;1.25;11.00;99.90;;;;;;5017166;28;11512;-51
2022/04/17 11:30:05;;;;;;;;;1.00;1.00;11.00;99.90;;;;;;5012439;28;11535;-53
2022/04/17 11:32:35;;;;;;;;;1.00;1.00;11.00;99.90;;;;;;5013024;28;11568;-54
2022/04/17 11:35:10;;;;;;;;;1.00;1.00;11.00;99.90;;;;;;5017507;28;11491;-53
2022/04/17 11:37:40;;;;;;;;;1.00;1.00;11.00;99.90;;;;;;5019769;28;12132;-53
2022/04/17 11:40:15;;;;;;;;;3.50;1.25;11.00;99.90;;;;;;5003247;28;11624;-53
2022/04/17 11:42:50;;;;;;;;;0.00;0.00;11.00;99.90;;;;;;5014380;28;11611;-53
2022/04/17 11:45:25;;;;;;;;;1.75;0.00;11.00;99.90;;;;;;5010518;28;11506;-53
2022/04/17 11:48:03;;;;;;;;;1.00;1.00;11.00;99.90;;;;;;5011767;28;12374;-54
2022/04/17 11:50:35;;;;;;;;;1.00;1.00;11.00;99.90;;;;;;5016134;28;11604;-53
2022/04/17 11:53:12;;;;;;;;;1.75;0.00;11.00;99.90;;;;;;5016730;28;11522;-51
2022/04/17 11:55:44;;;;;;;;;1.00;1.00;11.00;99.90;;;;;;5015670;28;11590;-52
2022/04/17 11:58:26;;;;;;;;;0.75;0.75;10.90;99.90;;;;;;5013597;28;12620;-54
2022/04/17 12:00:58;;;;;;;;;0.50;0.50;10.90;99.90;;;;;;5015435;28;11519;-53
2022/04/17 12:03:46;;;;;;;;;1.25;1.00;11.00;99.90;;;;;;5013168;28;11554;-54
2022/04/17 12:06:16;;;;;;;;;1.75;1.50;11.00;99.90;;;;;;5014562;28;11518;-53
2022/04/17 12:08:52;;;;;;;;;0.75;0.75;10.90;99.90;;;;;;5021499;28;10984;-53
2022/04/17 12:11:22;;;;;;;;;1.00;1.00;10.90;99.90;;;;;;5009339;28;11692;-52
2022/04/17 12:13:56;;;;;;;;;1.00;1.00;10.90;99.90;;;;;;5046305;28;11510;-54
2022/04/17 12:16:27;;;;;;;;;1.25;1.25;10.90;99.90;;;;;;5010613;28;11517;-53
2022/04/17 12:18:56;;;;;;;;;2.00;2.00;10.90;99.90;;;;;;5018898;28;12205;-54
2022/04/17 12:21:30;;;;;;;;;3.00;3.00;10.90;99.90;;;;;;5010613;28;11534;-55
2022/04/17 12:24:00;;;;;;;;;2.00;2.00;10.90;99.90;;;;;;5014558;28;11562;-54
2022/04/17 12:26:31;;;;;;;;;1.75;1.75;10.90;99.90;;;;;;5025201;28;11676;-54
2022/04/17 12:29:05;;;;;;;;;1.75;1.75;10.90;99.90;;;;;;5025096;28;11551;-54
2022/04/17 12:31:35;;;;;;;;;1.75;1.75;10.90;99.90;;;;;;5019363;28;11536;-52
2022/04/17 12:34:26;;;;;;;;;4.00;2.75;10.90;99.90;;;;;;5023002;28;12258;-54
2022/04/17 12:36:56;;;;;;;;;4.75;3.50;10.90;99.90;;;;;;5013003;28;11507;-50
2022/04/17 12:39:34;;;;;;;;;3.00;3.00;10.90;99.90;;;;;;5020677;28;11676;-51
2022/04/17 12:42:16;;;;;;;;;5.25;4.50;10.80;99.90;;;;;;5018144;28;11675;-59
2022/04/17 12:44:47;;;;;;;;;5.25;5.00;10.80;99.90;;;;;;5020424;28;11572;-52
2022/04/17 12:47:17;;;;;;;;;6.25;4.50;10.80;99.90;;;;;;5021099;28;11496;-54
2022/04/17 12:49:48;;;;;;;;;5.75;5.75;10.80;99.90;;;;;;5020876;28;11505;-55
2022/04/17 12:52:23;;;;;;;;;6.25;5.00;10.70;99.90;;;;;;5016743;28;11533;-53
2022/04/17 12:54:56;;;;;;;;;4.50;4.50;10.70;99.90;;;;;;5024813;28;11533;-53
2022/04/17 12:57:26;;;;;;;;;2.25;2.25;10.70;99.90;;;;;;5014241;28;11500;-54
2022/04/17 12:59:56;;;;;;;;;1.75;1.75;10.60;99.90;;;;;;5018518;28;11556;-52
2022/04/17 13:02:28;;;;;;;;;1.50;1.50;10.70;99.90;;;;;;5019748;28;11520;-53
2022/04/17 13:05:00;;;;;;;;;1.00;1.00;10.60;99.90;;;;;;5020288;28;11513;-53
2022/04/17 13:07:35;;;;;;;;;0.00;0.00;10.70;99.90;;;;;;5019015;28;11539;-54
2022/04/17 13:10:08;;;;;;;;;0.00;0.00;10.60;99.90;;;;;;5019373;28;11549;-53
2022/04/17 13:12:47;;;;;;;;;0.50;0.50;10.60;99.90;;;;;;5018111;28;11539;-50
2022/04/17 13:15:18;;;;;;;;;1.50;1.50;10.60;99.90;;;;;;5021300;28;11500;-54
2022/04/17 13:17:52;;;;;;;;;1.00;1.00;10.60;99.90;;;;;;5034718;28;11528;-53
2022/04/17 13:20:24;;;;;;;;;0.75;0.75;10.60;99.90;;;;;;5020782;28;11551;-52
2022/04/17 13:22:56;;;;;;;;;1.00;1.00;10.50;99.90;;;;;;5016573;28;11528;-52
2022/04/17 13:25:28;;;;;;;;;2.00;1.00;10.50;99.90;;;;;;5016270;28;11539;-53
2022/04/17 13:28:01;;;;;;;;;1.00;1.00;10.50;99.90;;;;;;5011542;28;11514;-54
2022/04/17 13:30:32;;;;;;;;;1.00;1.00;10.50;99.90;;;;;;5018180;28;12205;-55
2022/04/17 13:33:02;;;;;;;;;2.00;2.00;10.40;99.90;;;;;;5013280;28;11590;-52